• Join FlightAware (Why Join?)
  • Login
  • US Flag 
12:38AM EDT


 

Airport Tracker/Info


-or-


 

Live Flight TrackerFlight Track Log ✈ N163CA ✈ 27-Oct-2013 ✈ KTLH - KCGC

Flight Track Log - Related Links

Times and Time Zones

All times are in EDT time to prevent confusion due to time zone crossing. See the N163CA flight status page for this flight to view local times or setup timezone preferences in your user account.

Time Position Orientation Groundspeed Altitude Reporting Facility
EDT Latitude Longitude Course Direction KTS MPH feet Rate Location/Type
09:26PM 30.3059 -84.2430 134° Southeast  Level Estimated
09:27PM 30.2907 -84.2250 134° Southeast  Level FlightAware Approximate
09:28PM 30.2756 -84.2070 134° Southeast  Level FlightAware Approximate
09:29PM 30.2604 -84.1890 134° Southeast  Level FlightAware Approximate
09:29PM 30.1589 -84.0506 134° Southeast 118 136 4,900  Level Jacksonville Center
09:30PM 30.2453 -84.1711 134° Southeast  Level FlightAware Approximate
09:30PM 30.1425 -84.0192 121° Southeast 124 143 4,900  Level Jacksonville Center
09:31PM 30.2301 -84.1531 134° Southeast  Level FlightAware Approximate
09:31PM 30.1219 -83.9997 141° Southeast 119 137 4,900  Level Jacksonville Center
09:32PM 30.2150 -84.1351 134° Southeast  Level FlightAware Approximate
09:32PM 30.0969 -83.9731 137° Southeast 114 131 4,900  Level Jacksonville Center
09:33PM 30.1998 -84.1172 134° Southeast  Level FlightAware Approximate
09:33PM 30.0722 -83.9486 139° Southeast 114 131 4,900  Level Jacksonville Center
09:34PM 30.1847 -84.0992 134° Southeast  Level FlightAware Approximate
09:34PM 30.0494 -83.9244 137° Southeast 114 131 4,900  Level Jacksonville Center
09:35PM 30.0267 -83.9003 137° Southeast 114 131 4,900  Level Jacksonville Center
09:36PM 30.0039 -83.8736 135° Southeast 114 131 4,900  Level Jacksonville Center
09:37PM 29.9811 -83.8444 132° Southeast 114 131 4,900  Level Jacksonville Center
09:38PM 29.9625 -83.8156 127° Southeast 114 131 4,900  Level Jacksonville Center
09:39PM 29.9397 -83.7892 135° Southeast 119 137 4,900  Level Jacksonville Center
09:40PM 29.9150 -83.7600 134° Southeast 119 137 4,900  Level Jacksonville Center
09:41PM 29.8900 -83.7383 143° Southeast 119 137 4,900  Level Jacksonville Center
09:42PM 29.8608 -83.7164 147° Southeast 119 137 4,900  Level Jacksonville Center
09:43PM 29.8381 -83.6900 135° Southeast 119 137 4,900  Level Jacksonville Center
09:44PM 29.8175 -83.6586 127° Southeast 119 137 4,900  Level Jacksonville Center
09:45PM 29.7947 -83.6297 132° Southeast 119 137 4,900  Level Jacksonville Center
09:46PM 29.7697 -83.6008 135° Southeast 119 137 4,900  Level Jacksonville Center
09:47PM 29.7469 -83.5719 132° Southeast 119 137 4,900  Level Jacksonville Center
09:48PM 29.7242 -83.5431 132° Southeast 119 137 4,900  Level Jacksonville Center
09:49PM 29.7014 -83.5142 132° Southeast 119 137 4,900  Level Jacksonville Center
09:50PM 29.6783 -83.4878 135° Southeast 119 137 4,900  Level Jacksonville Center
09:51PM 29.6578 -83.4614 132° Southeast 119 137 4,900  Level Jacksonville Center
09:52PM 29.6347 -83.4350 135° Southeast 119 137 5,000  Climbing Jacksonville Center
09:53PM 29.6100 -83.4086 137° Southeast 119 137 4,900  Descending Jacksonville Center
09:54PM 29.5850 -83.3797 135° Southeast 119 137 5,000  Climbing Jacksonville Center
09:55PM 29.5642 -83.3533 132° Southeast 119 137 4,900 -60 Descending Jacksonville Center
09:56PM 29.5372 -83.3294 142° Southeast 119 137 4,900  Level Jacksonville Center
09:57PM 29.5122 -83.3031 137° Southeast 119 137 4,900  Level Jacksonville Center
09:58PM 29.4914 -83.2767 132° Southeast 119 137 4,900  Level Jacksonville Center
09:59PM 29.4686 -83.2503 135° Southeast 119 137 4,900  Level Jacksonville Center
09:59PM 29.4561 -83.2408 147° Southeast 120 138 4,900  Level Jacksonville Center
10:00PM 29.4436 -83.2217 127° Southeast 119 137 4,900  Level Jacksonville Center
10:01PM 29.4311 -83.2097 140° Southeast 121 139 4,900  Level Jacksonville Center
10:01PM 29.4206 -83.1953 130° Southeast 119 137 4,900  Level Jacksonville Center
10:02PM 29.4081 -83.1833 140° Southeast 119 137 4,900 60 Level Jacksonville Center
10:02PM 29.3956 -83.1714 140° Southeast 119 137 5,000  Climbing Jacksonville Center
10:03PM 29.3811 -83.1619 150° Southeast 119 137 4,900 -120 Descending Jacksonville Center
10:03PM 29.3686 -83.1475 135° Southeast 119 137 4,900  Level Jacksonville Center
10:04PM 29.3561 -83.1333 135° Southeast 119 137 4,900  Level Jacksonville Center
10:04PM 29.3456 -83.1189 130° Southeast 124 143 4,900  Level Jacksonville Center
10:05PM 29.3331 -83.1069 140° Southeast 119 137 4,900  Level Jacksonville Center
10:05PM 29.3228 -83.0903 125° Southeast 119 137 4,900  Level Jacksonville Center
10:06PM 29.3081 -83.0736 135° Southeast 119 137 4,900  Level Jacksonville Center
10:06PM 29.3039 -83.0617 112° Southeast 119 137 4,900  Level Jacksonville Center
10:07PM 29.2853 -83.0425 138° Southeast 118 136 4,900  Level Jacksonville Center
10:07PM 29.2811 -83.0331 117° Southeast 119 137 4,900  Level Jacksonville Center
10:08PM 29.2622 -83.0117 135° Southeast 118 136 4,900  Level Jacksonville Center
10:08PM 29.2581 -83.0067 134° Southeast 119 137 4,900  Level Jacksonville Center
10:09PM 29.2372 -82.9878 142° Southeast 121 139 4,900  Level Jacksonville Center
10:09PM 29.2331 -82.9831 135° Southeast 124 143 4,900 60 Level Jacksonville Center
10:10PM 29.2142 -82.9617 135° Southeast 116 133 5,000 60 Climbing Jacksonville Center
10:10PM 29.2100 -82.9567 134° Southeast 124 143 5,000 -120 Level Jacksonville Center
10:11PM 29.1892 -82.9306 132° Southeast 117 135 4,900 -120 Descending Jacksonville Center
10:11PM 29.1850 -82.9306 180° South 119 137 4,900  Level Jacksonville Center
10:12PM 29.1642 -82.9069 135° Southeast 119 137 4,900  Level Jacksonville Center
10:12PM 29.1642 -82.9044 90° East 119 137 4,900  Level Jacksonville Center
10:13PM 29.1414 -82.8806 138° Southeast 119 137 4,900  Level Jacksonville Center
10:13PM 29.1392 -82.8783 139° Southeast 119 137 4,900  Level Jacksonville Center
10:14PM 29.1244 -82.8522 123° Southeast 122 140 4,900 -120 Level Jacksonville Center
10:14PM 29.1203 -82.8428 117° Southeast 119 137 4,800 -480 Descending Jacksonville Center
10:15PM 29.1036 -82.8189 129° Southeast 114 131 4,400 -540 Descending Jacksonville Center
10:16PM 29.0828 -82.7953 135° Southeast 113 130 3,900 -600 Descending Jacksonville Center
10:17PM 29.0619 -82.7739 138° Southeast 112 129 3,400 -600 Descending Jacksonville Center
10:18PM 29.0411 -82.7478 132° Southeast 112 129 2,900 -540 Descending Jacksonville Center
10:19PM 29.0200 -82.7264 138° Southeast 109 125 2,400 -540 Descending Jacksonville Center
10:20PM 28.9950 -82.7075 147° Southeast 111 128 1,900 -540 Descending Jacksonville Center